sensor_id;sensor_type;location;lat;lon;timestamp;P1;durP1;ratioP1;P2;durP2;ratioP2
52734;SDS011;38631;47.572;10.704;2023-04-24T00:01:42;0.40;;;0.30;;
52734;SDS011;38631;47.572;10.704;2023-04-24T00:04:08;0.77;;;0.30;;
52734;SDS011;38631;47.572;10.704;2023-04-24T00:06:35;0.20;;;0.15;;
52734;SDS011;38631;47.572;10.704;2023-04-24T00:09:11;0.20;;;0.10;;
52734;SDS011;38631;47.572;10.704;2023-04-24T00:11:36;0.77;;;0.10;;
52734;SDS011;38631;47.572;10.704;2023-04-24T00:14:02;0.20;;;0.10;;
52734;SDS011;38631;47.572;10.704;2023-04-24T00:16:27;0.10;;;0.10;;
52734;SDS011;38631;47.572;10.704;2023-04-24T00:18:53;0.15;;;0.10;;
52734;SDS011;38631;47.572;10.704;2023-04-24T00:21:18;0.10;;;0.10;;
52734;SDS011;38631;47.572;10.704;2023-04-24T00:23:44;1.83;;;0.45;;
52734;SDS011;38631;47.572;10.704;2023-04-24T00:26:09;1.55;;;0.10;;
52734;SDS011;38631;47.572;10.704;2023-04-24T00:28:35;0.40;;;0.20;;
52734;SDS011;38631;47.572;10.704;2023-04-24T00:31:01;0.10;;;0.10;;
52734;SDS011;38631;47.572;10.704;2023-04-24T00:33:26;0.20;;;0.10;;
52734;SDS011;38631;47.572;10.704;2023-04-24T00:35:51;1.55;;;0.25;;
52734;SDS011;38631;47.572;10.704;2023-04-24T00:38:17;0.30;;;0.10;;
52734;SDS011;38631;47.572;10.704;2023-04-24T00:40:43;0.10;;;0.10;;
52734;SDS011;38631;47.572;10.704;2023-04-24T00:43:08;0.22;;;0.10;;
52734;SDS011;38631;47.572;10.704;2023-04-24T00:45:33;0.80;;;0.15;;
52734;SDS011;38631;47.572;10.704;2023-04-24T00:47:59;0.10;;;0.10;;
52734;SDS011;38631;47.572;10.704;2023-04-24T00:50:25;2.47;;;0.10;;
52734;SDS011;38631;47.572;10.704;2023-04-24T00:52:51;0.35;;;0.10;;
52734;SDS011;38631;47.572;10.704;2023-04-24T00:55:17;0.50;;;0.13;;
52734;SDS011;38631;47.572;10.704;2023-04-24T00:57:43;0.43;;;0.10;;
52734;SDS011;38631;47.572;10.704;2023-04-24T01:00:10;0.10;;;0.10;;
52734;SDS011;38631;47.572;10.704;2023-04-24T01:02:37;0.30;;;0.10;;
52734;SDS011;38631;47.572;10.704;2023-04-24T01:05:05;0.10;;;0.10;;
52734;SDS011;38631;47.572;10.704;2023-04-24T01:07:33;0.80;;;0.20;;
52734;SDS011;38631;47.572;10.704;2023-04-24T01:09:59;0.70;;;0.10;;
52734;SDS011;38631;47.572;10.704;2023-04-24T01:12:25;0.05;;;0.05;;
52734;SDS011;38631;47.572;10.704;2023-04-24T01:14:50;0.47;;;0.10;;
52734;SDS011;38631;47.572;10.704;2023-04-24T01:17:15;0.40;;;0.15;;
52734;SDS011;38631;47.572;10.704;2023-04-24T01:19:41;1.45;;;0.10;;
52734;SDS011;38631;47.572;10.704;2023-04-24T01:22:13;0.10;;;0.10;;
52734;SDS011;38631;47.572;10.704;2023-04-24T01:24:39;0.60;;;0.20;;
52734;SDS011;38631;47.572;10.704;2023-04-24T01:27:05;0.10;;;0.10;;
52734;SDS011;38631;47.572;10.704;2023-04-24T01:29:31;0.10;;;0.10;;
52734;SDS011;38631;47.572;10.704;2023-04-24T01:31:57;0.25;;;0.10;;
52734;SDS011;38631;47.572;10.704;2023-04-24T01:34:23;0.20;;;0.10;;
52734;SDS011;38631;47.572;10.704;2023-04-24T01:36:49;1.88;;;0.20;;
52734;SDS011;38631;47.572;10.704;2023-04-24T01:39:15;0.30;;;0.10;;
52734;SDS011;38631;47.572;10.704;2023-04-24T01:41:41;0.20;;;0.10;;
52734;SDS011;38631;47.572;10.704;2023-04-24T01:44:07;0.20;;;0.00;;
52734;SDS011;38631;47.572;10.704;2023-04-24T01:46:32;0.55;;;0.10;;
52734;SDS011;38631;47.572;10.704;2023-04-24T01:48:59;0.43;;;0.10;;
52734;SDS011;38631;47.572;10.704;2023-04-24T01:51:25;1.17;;;0.10;;
52734;SDS011;38631;47.572;10.704;2023-04-24T01:53:51;0.40;;;0.10;;
52734;SDS011;38631;47.572;10.704;2023-04-24T01:56:19;0.50;;;0.10;;
52734;SDS011;38631;47.572;10.704;2023-04-24T01:58:45;1.75;;;0.20;;
52734;SDS011;38631;47.572;10.704;2023-04-24T02:01:14;0.10;;;0.10;;
52734;SDS011;38631;47.572;10.704;2023-04-24T02:03:43;0.10;;;0.10;;
52734;SDS011;38631;47.572;10.704;2023-04-24T02:06:08;0.28;;;0.10;;
52734;SDS011;38631;47.572;10.704;2023-04-24T02:08:33;0.10;;;0.10;;
52734;SDS011;38631;47.572;10.704;2023-04-24T02:10:59;0.10;;;0.10;;
52734;SDS011;38631;47.572;10.704;2023-04-24T02:13:26;0.98;;;0.15;;
52734;SDS011;38631;47.572;10.704;2023-04-24T02:15:51;0.20;;;0.10;;
52734;SDS011;38631;47.572;10.704;2023-04-24T02:18:17;0.20;;;0.10;;
52734;SDS011;38631;47.572;10.704;2023-04-24T02:20:42;0.30;;;0.10;;
52734;SDS011;38631;47.572;10.704;2023-04-24T02:23:07;0.20;;;0.10;;
52734;SDS011;38631;47.572;10.704;2023-04-24T02:25:33;0.93;;;0.40;;
52734;SDS011;38631;47.572;10.704;2023-04-24T02:27:58;0.20;;;0.20;;
52734;SDS011;38631;47.572;10.704;2023-04-24T02:30:24;0.10;;;0.10;;
52734;SDS011;38631;47.572;10.704;2023-04-24T02:32:49;0.10;;;0.10;;
52734;SDS011;38631;47.572;10.704;2023-04-24T02:35:14;0.73;;;0.20;;
52734;SDS011;38631;47.572;10.704;2023-04-24T02:37:40;0.75;;;0.10;;
52734;SDS011;38631;47.572;10.704;2023-04-24T02:40:05;0.32;;;0.20;;
52734;SDS011;38631;47.572;10.704;2023-04-24T02:42:32;0.10;;;0.10;;
52734;SDS011;38631;47.572;10.704;2023-04-24T02:44:57;2.28;;;0.17;;
52734;SDS011;38631;47.572;10.704;2023-04-24T02:47:23;0.20;;;0.10;;
52734;SDS011;38631;47.572;10.704;2023-04-24T02:49:48;0.10;;;0.10;;
52734;SDS011;38631;47.572;10.704;2023-04-24T02:52:14;0.70;;;0.28;;
52734;SDS011;38631;47.572;10.704;2023-04-24T02:54:39;0.10;;;0.10;;
52734;SDS011;38631;47.572;10.704;2023-04-24T02:57:05;1.00;;;0.25;;
52734;SDS011;38631;47.572;10.704;2023-04-24T02:59:31;1.33;;;0.52;;
52734;SDS011;38631;47.572;10.704;2023-04-24T03:01:56;0.73;;;0.22;;
52734;SDS011;38631;47.572;10.704;2023-04-24T03:04:22;0.85;;;0.40;;
52734;SDS011;38631;47.572;10.704;2023-04-24T03:06:47;1.23;;;0.30;;
52734;SDS011;38631;47.572;10.704;2023-04-24T03:09:13;1.08;;;0.22;;
52734;SDS011;38631;47.572;10.704;2023-04-24T03:11:38;0.25;;;0.10;;
52734;SDS011;38631;47.572;10.704;2023-04-24T03:14:04;0.20;;;0.15;;
52734;SDS011;38631;47.572;10.704;2023-04-24T03:16:29;0.30;;;0.20;;
52734;SDS011;38631;47.572;10.704;2023-04-24T03:18:57;1.02;;;0.20;;
52734;SDS011;38631;47.572;10.704;2023-04-24T03:21:22;0.28;;;0.10;;
52734;SDS011;38631;47.572;10.704;2023-04-24T03:23:48;0.30;;;0.10;;
52734;SDS011;38631;47.572;10.704;2023-04-24T03:26:13;0.88;;;0.38;;
52734;SDS011;38631;47.572;10.704;2023-04-24T03:28:38;1.10;;;0.35;;
52734;SDS011;38631;47.572;10.704;2023-04-24T03:31:04;0.85;;;0.40;;
52734;SDS011;38631;47.572;10.704;2023-04-24T03:33:29;2.03;;;0.35;;
52734;SDS011;38631;47.572;10.704;2023-04-24T03:35:55;0.25;;;0.20;;
52734;SDS011;38631;47.572;10.704;2023-04-24T03:38:20;0.38;;;0.20;;
52734;SDS011;38631;47.572;10.704;2023-04-24T03:40:45;0.30;;;0.25;;
52734;SDS011;38631;47.572;10.704;2023-04-24T03:43:24;1.55;;;0.20;;
52734;SDS011;38631;47.572;10.704;2023-04-24T03:45:49;0.45;;;0.20;;
52734;SDS011;38631;47.572;10.704;2023-04-24T03:48:15;0.20;;;0.10;;
52734;SDS011;38631;47.572;10.704;2023-04-24T03:50:41;0.82;;;0.30;;
52734;SDS011;38631;47.572;10.704;2023-04-24T03:53:06;2.22;;;0.32;;
52734;SDS011;38631;47.572;10.704;2023-04-24T03:55:32;1.70;;;0.30;;
52734;SDS011;38631;47.572;10.704;2023-04-24T03:57:58;0.88;;;0.20;;
52734;SDS011;38631;47.572;10.704;2023-04-24T04:00:23;0.65;;;0.30;;
52734;SDS011;38631;47.572;10.704;2023-04-24T04:02:48;0.75;;;0.20;;
52734;SDS011;38631;47.572;10.704;2023-04-24T04:05:14;1.67;;;0.20;;
52734;SDS011;38631;47.572;10.704;2023-04-24T04:07:39;0.52;;;0.28;;
52734;SDS011;38631;47.572;10.704;2023-04-24T04:10:05;0.20;;;0.20;;
52734;SDS011;38631;47.572;10.704;2023-04-24T04:12:31;1.38;;;0.10;;
52734;SDS011;38631;47.572;10.704;2023-04-24T04:14:57;0.35;;;0.20;;
52734;SDS011;38631;47.572;10.704;2023-04-24T04:17:22;0.10;;;0.10;;
52734;SDS011;38631;47.572;10.704;2023-04-24T04:19:48;0.52;;;0.30;;
52734;SDS011;38631;47.572;10.704;2023-04-24T04:22:13;0.63;;;0.50;;
52734;SDS011;38631;47.572;10.704;2023-04-24T04:27:13;0.22;;;0.20;;
52734;SDS011;38631;47.572;10.704;2023-04-24T04:29:38;0.47;;;0.47;;
52734;SDS011;38631;47.572;10.704;2023-04-24T04:32:05;0.10;;;0.10;;
52734;SDS011;38631;47.572;10.704;2023-04-24T04:34:30;0.70;;;0.22;;
52734;SDS011;38631;47.572;10.704;2023-04-24T04:36:56;0.35;;;0.20;;
52734;SDS011;38631;47.572;10.704;2023-04-24T04:39:24;0.15;;;0.13;;
52734;SDS011;38631;47.572;10.704;2023-04-24T04:41:50;0.75;;;0.20;;
52734;SDS011;38631;47.572;10.704;2023-04-24T04:44:17;0.20;;;0.13;;
52734;SDS011;38631;47.572;10.704;2023-04-24T04:46:42;0.15;;;0.10;;
52734;SDS011;38631;47.572;10.704;2023-04-24T04:49:09;0.63;;;0.10;;
52734;SDS011;38631;47.572;10.704;2023-04-24T04:51:35;0.63;;;0.20;;
52734;SDS011;38631;47.572;10.704;2023-04-24T04:54:01;0.63;;;0.20;;
52734;SDS011;38631;47.572;10.704;2023-04-24T04:56:27;0.10;;;0.10;;
52734;SDS011;38631;47.572;10.704;2023-04-24T04:58:52;0.30;;;0.28;;
52734;SDS011;38631;47.572;10.704;2023-04-24T05:01:18;0.10;;;0.10;;
52734;SDS011;38631;47.572;10.704;2023-04-24T05:03:43;0.20;;;0.20;;
52734;SDS011;38631;47.572;10.704;2023-04-24T05:06:09;0.30;;;0.20;;
52734;SDS011;38631;47.572;10.704;2023-04-24T05:08:34;0.10;;;0.10;;
52734;SDS011;38631;47.572;10.704;2023-04-24T05:11:00;0.28;;;0.20;;
52734;SDS011;38631;47.572;10.704;2023-04-24T05:13:25;0.70;;;0.35;;
52734;SDS011;38631;47.572;10.704;2023-04-24T05:15:51;0.30;;;0.13;;
52734;SDS011;38631;47.572;10.704;2023-04-24T05:18:16;0.25;;;0.10;;
52734;SDS011;38631;47.572;10.704;2023-04-24T05:20:41;0.75;;;0.32;;
52734;SDS011;38631;47.572;10.704;2023-04-24T05:23:08;0.40;;;0.22;;
52734;SDS011;38631;47.572;10.704;2023-04-24T05:25:34;0.73;;;0.20;;
52734;SDS011;38631;47.572;10.704;2023-04-24T05:28:00;0.75;;;0.30;;
52734;SDS011;38631;47.572;10.704;2023-04-24T05:30:26;0.20;;;0.20;;
52734;SDS011;38631;47.572;10.704;2023-04-24T05:32:52;0.93;;;0.30;;
52734;SDS011;38631;47.572;10.704;2023-04-24T05:35:17;0.30;;;0.13;;
52734;SDS011;38631;47.572;10.704;2023-04-24T05:37:43;0.60;;;0.22;;
52734;SDS011;38631;47.572;10.704;2023-04-24T05:40:09;0.25;;;0.13;;
52734;SDS011;38631;47.572;10.704;2023-04-24T05:42:35;0.70;;;0.13;;
52734;SDS011;38631;47.572;10.704;2023-04-24T05:45:00;0.20;;;0.10;;
52734;SDS011;38631;47.572;10.704;2023-04-24T05:47:26;0.47;;;0.10;;
52734;SDS011;38631;47.572;10.704;2023-04-24T05:49:51;0.30;;;0.13;;
52734;SDS011;38631;47.572;10.704;2023-04-24T05:52:18;0.20;;;0.10;;
52734;SDS011;38631;47.572;10.704;2023-04-24T05:54:43;0.28;;;0.10;;
52734;SDS011;38631;47.572;10.704;2023-04-24T05:57:08;0.30;;;0.20;;
52734;SDS011;38631;47.572;10.704;2023-04-24T05:59:36;0.10;;;0.10;;
52734;SDS011;38631;47.572;10.704;2023-04-24T06:02:05;0.13;;;0.10;;
52734;SDS011;38631;47.572;10.704;2023-04-24T06:04:31;0.30;;;0.10;;
52734;SDS011;38631;47.572;10.704;2023-04-24T06:06:57;0.10;;;0.10;;
52734;SDS011;38631;47.572;10.704;2023-04-24T06:09:24;0.50;;;0.20;;
52734;SDS011;38631;47.572;10.704;2023-04-24T06:11:49;0.10;;;0.10;;
52734;SDS011;38631;47.572;10.704;2023-04-24T06:14:17;0.40;;;0.20;;
52734;SDS011;38631;47.572;10.704;2023-04-24T06:16:43;0.15;;;0.15;;
52734;SDS011;38631;47.572;10.704;2023-04-24T06:19:09;1.17;;;0.38;;
52734;SDS011;38631;47.572;10.704;2023-04-24T06:21:34;0.60;;;0.50;;
52734;SDS011;38631;47.572;10.704;2023-04-24T06:24:00;0.40;;;0.30;;
52734;SDS011;38631;47.572;10.704;2023-04-24T06:26:29;0.43;;;0.30;;
52734;SDS011;38631;47.572;10.704;2023-04-24T06:28:54;0.68;;;0.30;;
52734;SDS011;38631;47.572;10.704;2023-04-24T06:31:27;0.22;;;0.20;;
52734;SDS011;38631;47.572;10.704;2023-04-24T06:33:53;1.08;;;0.20;;
52734;SDS011;38631;47.572;10.704;2023-04-24T06:36:19;0.50;;;0.30;;
52734;SDS011;38631;47.572;10.704;2023-04-24T06:38:44;0.40;;;0.20;;
52734;SDS011;38631;47.572;10.704;2023-04-24T06:41:10;1.27;;;0.22;;
52734;SDS011;38631;47.572;10.704;2023-04-24T06:43:35;0.38;;;0.25;;
52734;SDS011;38631;47.572;10.704;2023-04-24T06:46:01;0.77;;;0.20;;
52734;SDS011;38631;47.572;10.704;2023-04-24T06:48:28;0.22;;;0.20;;
52734;SDS011;38631;47.572;10.704;2023-04-24T06:50:53;0.90;;;0.60;;
52734;SDS011;38631;47.572;10.704;2023-04-24T06:53:19;1.00;;;0.45;;
52734;SDS011;38631;47.572;10.704;2023-04-24T06:55:44;0.90;;;0.45;;
52734;SDS011;38631;47.572;10.704;2023-04-24T06:58:12;0.63;;;0.40;;
52734;SDS011;38631;47.572;10.704;2023-04-24T07:00:37;0.88;;;0.40;;
52734;SDS011;38631;47.572;10.704;2023-04-24T07:03:10;0.40;;;0.20;;
52734;SDS011;38631;47.572;10.704;2023-04-24T07:05:48;0.47;;;0.30;;
52734;SDS011;38631;47.572;10.704;2023-04-24T07:08:14;1.17;;;0.40;;
52734;SDS011;38631;47.572;10.704;2023-04-24T07:10:46;0.73;;;0.35;;
52734;SDS011;38631;47.572;10.704;2023-04-24T07:13:11;1.45;;;0.77;;
52734;SDS011;38631;47.572;10.704;2023-04-24T07:15:37;0.30;;;0.20;;
52734;SDS011;38631;47.572;10.704;2023-04-24T07:18:11;0.50;;;0.30;;
52734;SDS011;38631;47.572;10.704;2023-04-24T07:20:36;0.50;;;0.20;;
52734;SDS011;38631;47.572;10.704;2023-04-24T07:23:02;1.55;;;0.40;;
52734;SDS011;38631;47.572;10.704;2023-04-24T07:25:29;0.20;;;0.20;;
52734;SDS011;38631;47.572;10.704;2023-04-24T07:27:57;0.70;;;0.20;;
52734;SDS011;38631;47.572;10.704;2023-04-24T07:30:22;0.55;;;0.20;;
52734;SDS011;38631;47.572;10.704;2023-04-24T07:32:48;0.82;;;0.40;;
52734;SDS011;38631;47.572;10.704;2023-04-24T07:35:13;0.30;;;0.20;;
52734;SDS011;38631;47.572;10.704;2023-04-24T07:37:38;2.55;;;0.22;;
52734;SDS011;38631;47.572;10.704;2023-04-24T07:40:04;0.30;;;0.20;;
52734;SDS011;38631;47.572;10.704;2023-04-24T07:42:30;0.60;;;0.35;;
52734;SDS011;38631;47.572;10.704;2023-04-24T07:44:55;0.85;;;0.40;;
52734;SDS011;38631;47.572;10.704;2023-04-24T07:47:21;1.70;;;0.50;;
52734;SDS011;38631;47.572;10.704;2023-04-24T07:49:47;0.77;;;0.43;;
52734;SDS011;38631;47.572;10.704;2023-04-24T07:52:12;2.28;;;0.98;;
52734;SDS011;38631;47.572;10.704;2023-04-24T07:54:38;1.73;;;0.60;;
52734;SDS011;38631;47.572;10.704;2023-04-24T07:57:03;1.15;;;0.65;;
52734;SDS011;38631;47.572;10.704;2023-04-24T07:59:29;0.90;;;0.75;;
52734;SDS011;38631;47.572;10.704;2023-04-24T08:01:54;1.17;;;0.68;;
52734;SDS011;38631;47.572;10.704;2023-04-24T08:04:20;1.30;;;0.47;;
52734;SDS011;38631;47.572;10.704;2023-04-24T08:06:47;1.20;;;0.80;;
52734;SDS011;38631;47.572;10.704;2023-04-24T08:09:12;0.80;;;0.80;;
52734;SDS011;38631;47.572;10.704;2023-04-24T08:11:48;1.65;;;1.08;;
52734;SDS011;38631;47.572;10.704;2023-04-24T08:14:31;1.50;;;0.73;;
52734;SDS011;38631;47.572;10.704;2023-04-24T08:16:56;1.00;;;0.68;;
52734;SDS011;38631;47.572;10.704;2023-04-24T08:19:25;2.80;;;0.60;;
52734;SDS011;38631;47.572;10.704;2023-04-24T08:21:50;1.30;;;0.70;;
52734;SDS011;38631;47.572;10.704;2023-04-24T08:27:01;1.13;;;0.68;;
52734;SDS011;38631;47.572;10.704;2023-04-24T08:29:27;4.13;;;1.42;;
52734;SDS011;38631;47.572;10.704;2023-04-24T08:31:52;2.10;;;0.68;;
52734;SDS011;38631;47.572;10.704;2023-04-24T08:34:19;1.55;;;0.90;;
52734;SDS011;38631;47.572;10.704;2023-04-24T08:39:16;0.85;;;0.60;;
52734;SDS011;38631;47.572;10.704;2023-04-24T08:41:50;1.75;;;1.00;;
52734;SDS011;38631;47.572;10.704;2023-04-24T08:44:17;1.27;;;0.80;;
52734;SDS011;38631;47.572;10.704;2023-04-24T08:46:46;3.60;;;1.10;;
52734;SDS011;38631;47.572;10.704;2023-04-24T08:49:17;3.45;;;1.20;;
52734;SDS011;38631;47.572;10.704;2023-04-24T08:51:45;3.47;;;1.70;;
52734;SDS011;38631;47.572;10.704;2023-04-24T08:54:12;2.53;;;0.85;;
52734;SDS011;38631;47.572;10.704;2023-04-24T08:56:38;2.45;;;0.70;;
52734;SDS011;38631;47.572;10.704;2023-04-24T08:59:06;3.30;;;1.00;;
52734;SDS011;38631;47.572;10.704;2023-04-24T09:01:32;0.90;;;0.60;;
52734;SDS011;38631;47.572;10.704;2023-04-24T09:04:00;3.38;;;0.90;;
52734;SDS011;38631;47.572;10.704;2023-04-24T09:06:35;2.10;;;1.00;;
52734;SDS011;38631;47.572;10.704;2023-04-24T09:09:01;1.10;;;0.70;;
52734;SDS011;38631;47.572;10.704;2023-04-24T09:11:28;1.63;;;0.90;;
52734;SDS011;38631;47.572;10.704;2023-04-24T09:28:19;0.90;;;0.50;;
52734;SDS011;38631;47.572;10.704;2023-04-24T09:30:44;1.35;;;0.60;;
52734;SDS011;38631;47.572;10.704;2023-04-24T09:33:13;0.85;;;0.50;;
52734;SDS011;38631;47.572;10.704;2023-04-24T09:35:41;1.45;;;0.82;;
52734;SDS011;38631;47.572;10.704;2023-04-24T09:41:07;0.68;;;0.20;;
52734;SDS011;38631;47.572;10.704;2023-04-24T09:43:34;0.65;;;0.40;;
52734;SDS011;38631;47.572;10.704;2023-04-24T09:46:04;0.77;;;0.57;;
52734;SDS011;38631;47.572;10.704;2023-04-24T09:51:37;0.90;;;0.43;;
52734;SDS011;38631;47.572;10.704;2023-04-24T09:54:04;1.60;;;0.68;;
52734;SDS011;38631;47.572;10.704;2023-04-24T09:56:41;2.35;;;0.60;;
52734;SDS011;38631;47.572;10.704;2023-04-24T09:59:08;2.28;;;0.32;;
52734;SDS011;38631;47.572;10.704;2023-04-24T10:01:34;4.20;;;1.45;;
52734;SDS011;38631;47.572;10.704;2023-04-24T10:06:55;2.60;;;0.57;;
52734;SDS011;38631;47.572;10.704;2023-04-24T10:09:23;0.77;;;0.50;;
52734;SDS011;38631;47.572;10.704;2023-04-24T10:11:51;1.25;;;0.70;;
52734;SDS011;38631;47.572;10.704;2023-04-24T10:14:20;0.80;;;0.45;;
52734;SDS011;38631;47.572;10.704;2023-04-24T10:16:48;1.77;;;0.52;;
52734;SDS011;38631;47.572;10.704;2023-04-24T10:19:15;1.10;;;0.52;;
52734;SDS011;38631;47.572;10.704;2023-04-24T10:21:42;1.63;;;0.65;;
52734;SDS011;38631;47.572;10.704;2023-04-24T10:24:22;1.10;;;0.30;;
52734;SDS011;38631;47.572;10.704;2023-04-24T10:26:55;0.88;;;0.35;;
52734;SDS011;38631;47.572;10.704;2023-04-24T10:29:33;0.90;;;0.45;;
52734;SDS011;38631;47.572;10.704;2023-04-24T10:32:00;3.60;;;0.30;;
52734;SDS011;38631;47.572;10.704;2023-04-24T10:34:26;2.25;;;0.30;;
52734;SDS011;38631;47.572;10.704;2023-04-24T10:36:53;0.73;;;0.45;;
52734;SDS011;38631;47.572;10.704;2023-04-24T10:39:22;1.15;;;0.20;;
52734;SDS011;38631;47.572;10.704;2023-04-24T10:41:51;0.65;;;0.20;;
52734;SDS011;38631;47.572;10.704;2023-04-24T10:44:16;0.45;;;0.22;;
52734;SDS011;38631;47.572;10.704;2023-04-24T10:46:45;0.57;;;0.30;;
52734;SDS011;38631;47.572;10.704;2023-04-24T10:49:13;0.40;;;0.20;;
52734;SDS011;38631;47.572;10.704;2023-04-24T10:54:24;0.10;;;0.10;;
52734;SDS011;38631;47.572;10.704;2023-04-24T10:56:51;0.10;;;0.10;;
52734;SDS011;38631;47.572;10.704;2023-04-24T10:59:27;0.20;;;0.20;;
52734;SDS011;38631;47.572;10.704;2023-04-24T11:01:59;0.20;;;0.20;;
52734;SDS011;38631;47.572;10.704;2023-04-24T11:04:28;1.65;;;0.50;;
52734;SDS011;38631;47.572;10.704;2023-04-24T11:06:56;1.75;;;1.15;;
52734;SDS011;38631;47.572;10.704;2023-04-24T11:09:22;4.00;;;1.75;;
52734;SDS011;38631;47.572;10.704;2023-04-24T11:11:53;1.40;;;0.63;;
52734;SDS011;38631;47.572;10.704;2023-04-24T11:17:33;0.68;;;0.43;;
52734;SDS011;38631;47.572;10.704;2023-04-24T11:20:11;0.80;;;0.40;;
52734;SDS011;38631;47.572;10.704;2023-04-24T11:22:39;0.77;;;0.50;;
52734;SDS011;38631;47.572;10.704;2023-04-24T11:25:08;1.42;;;0.55;;
52734;SDS011;38631;47.572;10.704;2023-04-24T11:27:43;0.50;;;0.40;;
52734;SDS011;38631;47.572;10.704;2023-04-24T11:30:11;1.17;;;0.50;;
52734;SDS011;38631;47.572;10.704;2023-04-24T11:32:38;1.25;;;0.60;;
52734;SDS011;38631;47.572;10.704;2023-04-24T11:35:17;6.07;;;0.82;;
52734;SDS011;38631;47.572;10.704;2023-04-24T11:37:51;2.10;;;0.95;;
52734;SDS011;38631;47.572;10.704;2023-04-24T11:40:18;1.95;;;1.08;;
52734;SDS011;38631;47.572;10.704;2023-04-24T11:42:48;3.97;;;2.28;;
52734;SDS011;38631;47.572;10.704;2023-04-24T11:45:15;1.45;;;0.93;;
52734;SDS011;38631;47.572;10.704;2023-04-24T11:47:48;2.20;;;0.77;;
52734;SDS011;38631;47.572;10.704;2023-04-24T11:50:14;1.70;;;0.55;;
52734;SDS011;38631;47.572;10.704;2023-04-24T11:52:41;2.00;;;0.60;;
52734;SDS011;38631;47.572;10.704;2023-04-24T11:57:43;1.27;;;0.90;;
52734;SDS011;38631;47.572;10.704;2023-04-24T12:00:15;1.25;;;0.70;;
52734;SDS011;38631;47.572;10.704;2023-04-24T12:02:41;1.95;;;0.70;;
52734;SDS011;38631;47.572;10.704;2023-04-24T12:05:06;1.48;;;0.70;;
52734;SDS011;38631;47.572;10.704;2023-04-24T12:07:39;2.90;;;0.80;;
52734;SDS011;38631;47.572;10.704;2023-04-24T12:10:08;1.48;;;0.80;;
52734;SDS011;38631;47.572;10.704;2023-04-24T12:12:34;2.03;;;1.23;;
52734;SDS011;38631;47.572;10.704;2023-04-24T12:14:59;2.08;;;1.00;;
52734;SDS011;38631;47.572;10.704;2023-04-24T12:17:29;2.00;;;1.10;;
52734;SDS011;38631;47.572;10.704;2023-04-24T12:20:02;2.15;;;0.80;;
52734;SDS011;38631;47.572;10.704;2023-04-24T12:22:50;2.33;;;1.25;;
52734;SDS011;38631;47.572;10.704;2023-04-24T12:25:20;4.50;;;1.10;;
52734;SDS011;38631;47.572;10.704;2023-04-24T12:27:52;2.80;;;1.02;;
52734;SDS011;38631;47.572;10.704;2023-04-24T12:30:19;2.42;;;1.20;;
52734;SDS011;38631;47.572;10.704;2023-04-24T12:32:47;2.70;;;1.30;;
52734;SDS011;38631;47.572;10.704;2023-04-24T12:35:14;3.00;;;1.45;;
52734;SDS011;38631;47.572;10.704;2023-04-24T12:37:46;4.25;;;1.70;;
52734;SDS011;38631;47.572;10.704;2023-04-24T12:40:19;3.58;;;1.38;;
52734;SDS011;38631;47.572;10.704;2023-04-24T12:42:46;3.55;;;1.50;;
52734;SDS011;38631;47.572;10.704;2023-04-24T12:48:00;5.82;;;1.15;;
52734;SDS011;38631;47.572;10.704;2023-04-24T12:50:34;2.92;;;1.33;;
52734;SDS011;38631;47.572;10.704;2023-04-24T12:53:00;1.45;;;1.08;;
52734;SDS011;38631;47.572;10.704;2023-04-24T12:55:25;2.03;;;1.00;;
52734;SDS011;38631;47.572;10.704;2023-04-24T12:57:55;2.92;;;1.58;;
52734;SDS011;38631;47.572;10.704;2023-04-24T13:03:02;2.28;;;1.17;;
52734;SDS011;38631;47.572;10.704;2023-04-24T13:05:31;1.92;;;1.40;;
52734;SDS011;38631;47.572;10.704;2023-04-24T13:07:56;6.20;;;1.75;;
52734;SDS011;38631;47.572;10.704;2023-04-24T13:10:22;2.92;;;1.02;;
52734;SDS011;38631;47.572;10.704;2023-04-24T13:12:47;5.75;;;2.10;;
52734;SDS011;38631;47.572;10.704;2023-04-24T13:15:22;3.45;;;1.30;;
52734;SDS011;38631;47.572;10.704;2023-04-24T13:17:48;2.72;;;1.25;;
52734;SDS011;38631;47.572;10.704;2023-04-24T13:20:13;3.17;;;1.15;;
52734;SDS011;38631;47.572;10.704;2023-04-24T13:22:38;2.13;;;1.10;;
52734;SDS011;38631;47.572;10.704;2023-04-24T13:25:04;2.13;;;1.05;;
52734;SDS011;38631;47.572;10.704;2023-04-24T13:27:49;2.17;;;1.23;;
52734;SDS011;38631;47.572;10.704;2023-04-24T13:30:14;5.03;;;1.27;;
52734;SDS011;38631;47.572;10.704;2023-04-24T13:32:40;4.07;;;1.15;;
52734;SDS011;38631;47.572;10.704;2023-04-24T13:35:05;2.67;;;1.27;;
52734;SDS011;38631;47.572;10.704;2023-04-24T13:37:40;4.10;;;1.30;;
52734;SDS011;38631;47.572;10.704;2023-04-24T13:40:06;4.75;;;1.40;;
52734;SDS011;38631;47.572;10.704;2023-04-24T13:42:32;1.92;;;0.90;;
52734;SDS011;38631;47.572;10.704;2023-04-24T13:45:06;3.40;;;1.10;;
52734;SDS011;38631;47.572;10.704;2023-04-24T13:47:31;2.63;;;1.20;;
52734;SDS011;38631;47.572;10.704;2023-04-24T13:49:57;2.17;;;1.35;;
52734;SDS011;38631;47.572;10.704;2023-04-24T13:54:50;4.85;;;1.70;;
52734;SDS011;38631;47.572;10.704;2023-04-24T13:57:16;2.22;;;1.15;;
52734;SDS011;38631;47.572;10.704;2023-04-24T13:59:41;1.60;;;1.10;;
52734;SDS011;38631;47.572;10.704;2023-04-24T14:02:07;2.05;;;1.10;;
52734;SDS011;38631;47.572;10.704;2023-04-24T14:04:32;2.75;;;1.20;;
52734;SDS011;38631;47.572;10.704;2023-04-24T14:06:57;1.70;;;1.17;;
52734;SDS011;38631;47.572;10.704;2023-04-24T14:09:23;2.97;;;1.40;;
52734;SDS011;38631;47.572;10.704;2023-04-24T14:11:48;3.65;;;1.45;;
52734;SDS011;38631;47.572;10.704;2023-04-24T14:14:13;2.97;;;1.20;;
52734;SDS011;38631;47.572;10.704;2023-04-24T14:16:43;3.17;;;1.27;;
52734;SDS011;38631;47.572;10.704;2023-04-24T14:19:09;2.78;;;1.42;;
52734;SDS011;38631;47.572;10.704;2023-04-24T14:21:34;1.80;;;1.23;;
52734;SDS011;38631;47.572;10.704;2023-04-24T14:23:59;3.63;;;1.48;;
52734;SDS011;38631;47.572;10.704;2023-04-24T14:26:25;4.95;;;1.42;;
52734;SDS011;38631;47.572;10.704;2023-04-24T14:28:50;3.33;;;1.30;;
52734;SDS011;38631;47.572;10.704;2023-04-24T14:31:19;4.85;;;2.80;;
52734;SDS011;38631;47.572;10.704;2023-04-24T14:33:45;14.55;;;5.82;;
52734;SDS011;38631;47.572;10.704;2023-04-24T14:36:13;12.98;;;5.88;;
52734;SDS011;38631;47.572;10.704;2023-04-24T14:38:39;3.13;;;1.63;;
52734;SDS011;38631;47.572;10.704;2023-04-24T14:41:04;7.65;;;4.35;;
52734;SDS011;38631;47.572;10.704;2023-04-24T14:43:34;20.30;;;10.57;;
52734;SDS011;38631;47.572;10.704;2023-04-24T14:46:00;22.70;;;11.40;;
52734;SDS011;38631;47.572;10.704;2023-04-24T14:48:25;39.45;;;18.70;;
52734;SDS011;38631;47.572;10.704;2023-04-24T14:50:51;22.95;;;11.27;;
52734;SDS011;38631;47.572;10.704;2023-04-24T14:53:16;28.00;;;12.52;;
52734;SDS011;38631;47.572;10.704;2023-04-24T14:55:41;43.03;;;20.38;;
52734;SDS011;38631;47.572;10.704;2023-04-24T14:58:07;42.08;;;18.40;;
52734;SDS011;38631;47.572;10.704;2023-04-24T15:00:32;28.65;;;13.68;;
52734;SDS011;38631;47.572;10.704;2023-04-24T15:02:58;8.00;;;3.75;;
52734;SDS011;38631;47.572;10.704;2023-04-24T15:05:24;8.90;;;4.20;;
52734;SDS011;38631;47.572;10.704;2023-04-24T15:07:50;11.05;;;6.22;;
52734;SDS011;38631;47.572;10.704;2023-04-24T15:10:15;8.45;;;4.50;;
52734;SDS011;38631;47.572;10.704;2023-04-24T15:12:48;5.70;;;2.90;;
52734;SDS011;38631;47.572;10.704;2023-04-24T15:15:14;3.97;;;2.00;;
52734;SDS011;38631;47.572;10.704;2023-04-24T15:17:39;4.40;;;2.05;;
52734;SDS011;38631;47.572;10.704;2023-04-24T15:20:05;8.82;;;3.50;;